Eagle Point Bay, Illinois
Current Conditions -  °F | °C
As of 4:10 AM on Saturday 20 Dec 2014 (Local Time) from KMWA Reporting Station
Overcast Overcast  
Wind Chill: 34°   Ceiling: 6000
Heat Index: 34°   Visibility: 7mi
Dew Point: 30°   Wind: 3mph
Humidity: 87%   Direction: 360°N
Pressure: 30.28"   Gusts: NA
Location:  37.565°N, 88.982°W
Report Text: KMWA 201010Z AUTO 36003KT 7SM OVC060 01/M01 A3028 RMK AO2
Loading
Personal Weather Stations






























Interactive Weather Map New forecast layout! Learn more

10-Day Weather Forecast

Advertisements
Track Severe Weather on mobile